Time,TemperatureF,DewpointF,PressureIn,WindDirection,WindDirectionDegrees,WindSpeedMPH,WindSpeedGustMPH,Humidity,HourlyPrecipIn,Conditions,Clouds,dailyrainin,SoftwareType,DateUTC
2013-02-28 00:01:00,17.0,14.0,-100.00,ENE,72,4.0,5.0,90,0.00,,,-99.99,,2013-02-28 07:01:00,
2013-02-28 00:11:00,18.0,14.0,-100.00,ENE,58,5.0,6.0,86,0.00,,,-99.99,,2013-02-28 07:11:00,
2013-02-28 00:21:00,15.0,12.0,-100.00,NE,38,5.0,6.0,90,0.00,,,-99.99,,2013-02-28 07:21:00,
2013-02-28 00:31:00,15.0,12.0,-100.00,NE,38,5.0,6.0,90,0.00,,,-99.99,,2013-02-28 07:31:00,
2013-02-28 00:41:00,15.0,12.0,-100.00,NNE,28,6.0,8.0,88,0.00,,,-99.99,,2013-02-28 07:41:00,
2013-02-28 00:52:00,15.0,12.0,-100.00,NNE,28,6.0,8.0,88,0.00,,,-99.99,,2013-02-28 07:52:00,
2013-02-28 01:01:00,15.0,12.0,-100.00,NNE,28,6.0,8.0,88,0.00,,,-99.99,,2013-02-28 08:01:00,
2013-02-28 01:11:00,15.0,13.0,-100.00,NE,35,5.0,5.0,90,0.00,,,-99.99,,2013-02-28 08:11:00,
2013-02-28 01:21:00,15.0,12.0,-100.00,North,8,4.0,6.0,91,0.00,,,-99.99,,2013-02-28 08:21:00,
2013-02-28 01:32:00,15.0,12.0,-100.00,North,8,4.0,6.0,91,0.00,,,-99.99,,2013-02-28 08:32:00,
2013-02-28 01:42:00,14.0,12.0,-100.00,North,11,6.0,6.0,91,0.00,,,-99.99,,2013-02-28 08:42:00,
2013-02-28 01:53:00,14.0,12.0,-100.00,North,11,6.0,6.0,91,0.00,,,-99.99,,2013-02-28 08:53:00,
2013-02-28 02:02:00,14.0,12.0,-100.00,North,11,6.0,6.0,91,0.00,,,-99.99,,2013-02-28 09:02:00,
2013-02-28 02:11:00,13.0,11.0,-100.00,North,349,4.0,5.0,91,0.00,,,-99.99,,2013-02-28 09:11:00,
2013-02-28 02:21:00,13.0,11.0,-100.00,North,6,6.0,7.0,92,0.00,,,-99.99,,2013-02-28 09:21:00,
2013-02-28 02:31:00,13.0,11.0,-100.00,North,6,6.0,7.0,92,0.00,,,-99.99,,2013-02-28 09:31:00,
2013-02-28 02:42:00,13.0,11.0,-100.00,North,356,5.0,6.0,92,0.00,,,-99.99,,2013-02-28 09:42:00,
2013-02-28 02:52:00,15.0,12.0,-100.00,North,3,7.0,9.0,91,0.00,,,-99.99,,2013-02-28 09:52:00,
2013-02-28 03:01:00,15.0,12.0,-100.00,North,3,7.0,9.0,91,0.00,,,-99.99,,2013-02-28 10:01:00,
2013-02-28 03:11:00,15.0,12.0,-100.00,North,7,8.0,9.0,90,0.00,,,-99.99,,2013-02-28 10:11:00,
2013-02-28 03:21:00,15.0,12.0,-100.00,North,7,8.0,9.0,90,0.00,,,-99.99,,2013-02-28 10:21:00,
2013-02-28 03:31:00,15.0,12.0,-100.00,North,7,8.0,9.0,90,0.00,,,-99.99,,2013-02-28 10:31:00,
2013-02-28 03:42:00,14.0,12.0,-100.00,North,350,5.0,6.0,90,0.00,,,-99.99,,2013-02-28 10:42:00,
2013-02-28 03:52:00,14.0,12.0,-100.00,North,350,5.0,6.0,90,0.00,,,-99.99,,2013-02-28 10:52:00,
2013-02-28 04:01:00,14.0,12.0,-100.00,North,350,5.0,6.0,90,0.00,,,-99.99,,2013-02-28 11:01:00,
2013-02-28 04:11:00,14.0,12.0,-100.00,NNW,343,4.0,5.0,90,0.00,,,-99.99,,2013-02-28 11:11:00,
2013-02-28 04:21:00,14.0,12.0,-100.00,NNW,343,4.0,5.0,90,0.00,,,-99.99,,2013-02-28 11:21:00,
2013-02-28 04:31:00,14.0,12.0,-100.00,NNW,343,4.0,5.0,90,0.00,,,-99.99,,2013-02-28 11:31:00,
2013-02-28 04:41:00,15.0,12.0,-100.00,North,356,5.0,6.0,90,0.00,,,-99.99,,2013-02-28 11:41:00,
2013-02-28 04:52:00,16.0,13.0,-100.00,North,354,8.0,9.0,90,0.00,,,-99.99,,2013-02-28 11:52:00,
2013-02-28 05:01:00,16.0,13.0,-100.00,North,354,8.0,9.0,90,0.00,,,-99.99,,2013-02-28 12:01:00,
2013-02-28 05:11:00,16.0,13.0,-100.00,North,0,8.0,10.0,88,0.00,,,-99.99,,2013-02-28 12:11:00,
2013-02-28 05:21:00,16.0,13.0,-100.00,North,0,8.0,10.0,88,0.00,,,-99.99,,2013-02-28 12:21:00,
2013-02-28 05:31:00,16.0,13.0,-100.00,North,0,8.0,10.0,88,0.00,,,-99.99,,2013-02-28 12:31:00,
2013-02-28 05:42:00,15.0,13.0,-100.00,North,11,7.0,8.0,88,0.00,,,-99.99,,2013-02-28 12:42:00,
2013-02-28 05:52:00,15.0,12.0,-100.00,North,359,7.0,7.0,89,0.00,,,-99.99,,2013-02-28 12:52:00,
2013-02-28 06:01:00,15.0,12.0,-100.00,North,359,7.0,7.0,89,0.00,,,-99.99,,2013-02-28 13:01:00,
2013-02-28 06:11:00,14.0,12.0,-100.00,North,352,5.0,6.0,90,0.00,,,-99.99,,2013-02-28 13:11:00,
2013-02-28 06:21:00,14.0,12.0,-100.00,North,352,5.0,6.0,90,0.00,,,-99.99,,2013-02-28 13:21:00,
2013-02-28 06:31:00,14.0,12.0,-100.00,North,352,5.0,6.0,90,0.00,,,-99.99,,2013-02-28 13:31:00,
2013-02-28 06:41:00,14.0,11.0,-100.00,NNW,337,5.0,6.0,89,0.00,,,-99.99,,2013-02-28 13:41:00,
2013-02-28 06:52:00,15.0,12.0,-100.00,NNE,24,8.0,10.0,90,0.00,,,-99.99,,2013-02-28 13:52:00,
2013-02-28 07:01:00,15.0,12.0,-100.00,NNE,24,8.0,10.0,90,0.00,,,-99.99,,2013-02-28 14:01:00,
2013-02-28 07:11:00,16.0,13.0,-100.00,North,350,5.0,7.0,89,0.00,,,-99.99,,2013-02-28 14:11:00,
2013-02-28 07:21:00,16.0,13.0,-100.00,North,356,9.0,10.0,88,0.00,,,-99.99,,2013-02-28 14:21:00,
2013-02-28 07:31:00,16.0,13.0,-100.00,North,356,9.0,10.0,88,0.00,,,-99.99,,2013-02-28 14:31:00,
2013-02-28 07:42:00,16.0,13.0,-100.00,North,356,9.0,10.0,88,0.00,,,-99.99,,2013-02-28 14:42:00,
2013-02-28 07:52:00,17.0,14.0,-100.00,NNE,16,6.0,8.0,87,0.00,,,-99.99,,2013-02-28 14:52:00,
2013-02-28 08:01:00,17.0,14.0,-100.00,NNE,16,6.0,8.0,87,0.00,,,-99.99,,2013-02-28 15:01:00,
2013-02-28 08:11:00,18.0,15.0,-100.00,NNW,344,8.0,10.0,86,0.00,,,-99.99,,2013-02-28 15:11:00,
2013-02-28 08:21:00,19.0,15.0,-100.00,North,352,6.0,8.0,86,0.00,,,-99.99,,2013-02-28 15:21:00,
2013-02-28 08:32:00,19.0,15.0,-100.00,North,352,6.0,8.0,86,0.00,,,-99.99,,2013-02-28 15:32:00,
2013-02-28 08:41:00,19.0,15.0,-100.00,North,352,6.0,8.0,86,0.00,,,-99.99,,2013-02-28 15:41:00,
2013-02-28 08:52:00,20.0,16.0,-100.00,NNE,17,7.0,9.0,83,0.00,,,-99.99,,2013-02-28 15:52:00,
2013-02-28 09:01:00,20.0,16.0,-100.00,NNE,17,7.0,9.0,83,0.00,,,-99.99,,2013-02-28 16:01:00,
2013-02-28 09:11:00,21.0,16.0,-100.00,North,6,6.0,7.0,82,0.00,,,-99.99,,2013-02-28 16:11:00,
2013-02-28 09:22:00,21.0,17.0,-100.00,North,6,8.0,9.0,82,0.00,,,-99.99,,2013-02-28 16:22:00,
2013-02-28 09:32:00,21.0,17.0,-100.00,North,6,8.0,9.0,82,0.00,,,-99.99,,2013-02-28 16:32:00,
2013-02-28 09:42:00,22.0,17.0,-100.00,NNE,24,6.0,7.0,78,0.00,,,-99.99,,2013-02-28 16:42:00,
2013-02-28 09:52:00,22.0,17.0,-100.00,NNE,24,6.0,7.0,78,0.00,,,-99.99,,2013-02-28 16:52:00,
2013-02-28 10:01:00,22.0,17.0,-100.00,NNE,24,6.0,7.0,78,0.00,,,-99.99,,2013-02-28 17:01:00,
2013-02-28 10:11:00,24.0,18.0,-100.00,North,0,8.0,9.0,77,0.00,,,-99.99,,2013-02-28 17:11:00,
2013-02-28 10:21:00,25.0,17.0,-100.00,NNE,13,7.0,8.0,73,0.00,,,-99.99,,2013-02-28 17:21:00,
2013-02-28 10:32:00,25.0,17.0,-100.00,NNE,13,7.0,8.0,73,0.00,,,-99.99,,2013-02-28 17:32:00,
2013-02-28 10:41:00,26.0,18.0,-100.00,North,6,7.0,8.0,72,0.00,,,-99.99,,2013-02-28 17:41:00,
2013-02-28 10:52:00,27.0,19.0,-100.00,NNE,13,7.0,8.0,69,0.00,,,-99.99,,2013-02-28 17:52:00,
2013-02-28 11:01:00,27.0,19.0,-100.00,NNE,13,7.0,8.0,69,0.00,,,-99.99,,2013-02-28 18:01:00,
2013-02-28 11:11:00,27.0,19.0,-100.00,NNE,13,7.0,8.0,69,0.00,,,-99.99,,2013-02-28 18:11:00,
2013-02-28 11:21:00,30.0,19.0,-100.00,NNE,13,5.0,6.0,64,0.00,,,-99.99,,2013-02-28 18:21:00,
2013-02-28 11:31:00,30.0,19.0,-100.00,NNE,13,5.0,6.0,64,0.00,,,-99.99,,2013-02-28 18:31:00,
2013-02-28 11:42:00,32.0,19.0,-100.00,NNW,330,2.0,5.0,60,0.00,,,-99.99,,2013-02-28 18:42:00,
2013-02-28 11:52:00,34.0,20.0,-100.00,North,354,2.0,4.0,57,0.00,,,-99.99,,2013-02-28 18:52:00,
2013-02-28 12:01:00,34.0,20.0,-100.00,North,354,2.0,4.0,57,0.00,,,-99.99,,2013-02-28 19:01:00,
2013-02-28 12:11:00,31.0,18.0,-100.00,SE,127,2.0,3.0,59,0.00,,,-99.99,,2013-02-28 19:11:00,
2013-02-28 12:21:00,31.0,18.0,-100.00,SE,127,2.0,3.0,59,0.00,,,-99.99,,2013-02-28 19:21:00,
2013-02-28 12:31:00,31.0,18.0,-100.00,SE,127,2.0,3.0,59,0.00,,,-99.99,,2013-02-28 19:31:00,
2013-02-28 12:41:00,33.0,20.0,-100.00,SSE,157,1.0,4.0,57,0.00,,,-99.99,,2013-02-28 19:41:00,
2013-02-28 12:52:00,32.0,19.0,-100.00,ESE,106,3.0,5.0,58,0.00,,,-99.99,,2013-02-28 19:52:00,
2013-02-28 13:01:00,32.0,19.0,-100.00,ESE,106,3.0,5.0,58,0.00,,,-99.99,,2013-02-28 20:01:00,
2013-02-28 13:11:00,33.0,20.0,-100.00,ESE,123,2.0,4.0,59,0.00,,,-99.99,,2013-02-28 20:11:00,
2013-02-28 13:21:00,33.0,20.0,-100.00,ESE,123,2.0,4.0,59,0.00,,,-99.99,,2013-02-28 20:21:00,
2013-02-28 13:31:00,33.0,20.0,-100.00,ESE,123,2.0,4.0,59,0.00,,,-99.99,,2013-02-28 20:31:00,
2013-02-28 13:41:00,33.0,20.0,-100.00,ESE,123,2.0,4.0,59,0.00,,,-99.99,,2013-02-28 20:41:00,
2013-02-28 13:52:00,33.0,20.0,-100.00,SE,127,4.0,5.0,56,0.00,,,-99.99,,2013-02-28 20:52:00,
2013-02-28 14:01:00,33.0,20.0,-100.00,SE,127,4.0,5.0,56,0.00,,,-99.99,,2013-02-28 21:01:00,
2013-02-28 14:11:00,33.0,21.0,-100.00,ESE,123,6.0,7.0,59,0.00,,,-99.99,,2013-02-28 21:11:00,
2013-02-28 14:22:00,33.0,21.0,-100.00,ESE,123,6.0,7.0,59,0.00,,,-99.99,,2013-02-28 21:22:00,
2013-02-28 14:31:00,33.0,21.0,-100.00,ESE,123,6.0,7.0,59,0.00,,,-99.99,,2013-02-28 21:31:00,
2013-02-28 14:41:00,34.0,21.0,-100.00,SE,136,4.0,5.0,58,0.00,,,-99.99,,2013-02-28 21:41:00,
2013-02-28 14:52:00,35.0,21.0,-100.00,East,90,2.0,4.0,55,0.00,,,-99.99,,2013-02-28 21:52:00,
2013-02-28 15:01:00,35.0,21.0,-100.00,East,90,2.0,4.0,55,0.00,,,-99.99,,2013-02-28 22:01:00,
2013-02-28 15:11:00,36.0,22.0,-100.00,ENE,58,5.0,7.0,56,0.00,,,-99.99,,2013-02-28 22:11:00,
2013-02-28 15:21:00,35.0,22.0,-100.00,NE,52,6.0,7.0,56,0.00,,,-99.99,,2013-02-28 22:21:00,
2013-02-28 15:31:00,35.0,22.0,-100.00,NE,52,6.0,7.0,56,0.00,,,-99.99,,2013-02-28 22:31:00,
2013-02-28 15:41:00,35.0,22.0,-100.00,NE,52,6.0,7.0,56,0.00,,,-99.99,,2013-02-28 22:41:00,
2013-02-28 15:52:00,36.0,23.0,-100.00,ENE,65,4.0,6.0,59,0.00,,,-99.99,,2013-02-28 22:52:00,
2013-02-28 16:01:00,36.0,23.0,-100.00,ENE,65,4.0,6.0,59,0.00,,,-99.99,,2013-02-28 23:01:00,
2013-02-28 16:11:00,34.0,23.0,-100.00,NE,49,7.0,8.0,63,0.00,,,-99.99,,2013-02-28 23:11:00,
2013-02-28 16:21:00,34.0,23.0,-100.00,NE,49,7.0,8.0,63,0.00,,,-99.99,,2013-02-28 23:21:00,
2013-02-28 16:31:00,34.0,23.0,-100.00,NE,49,7.0,8.0,63,0.00,,,-99.99,,2013-02-28 23:31:00,
2013-02-28 16:41:00,34.0,23.0,-100.00,NE,40,5.0,8.0,62,0.00,,,-99.99,,2013-02-28 23:41:00,
2013-02-28 16:52:00,34.0,23.0,-100.00,NE,40,5.0,8.0,62,0.00,,,-99.99,,2013-02-28 23:52:00,
2013-02-28 17:01:00,34.0,23.0,-100.00,NE,40,5.0,8.0,62,0.00,,,-99.99,,2013-03-01 00:01:00,
2013-02-28 17:11:00,33.0,22.0,-100.00,NE,35,9.0,10.0,64,0.00,,,-99.99,,2013-03-01 00:11:00,
2013-02-28 17:22:00,33.0,23.0,-100.00,NE,42,6.0,8.0,65,0.00,,,-99.99,,2013-03-01 00:22:00,
2013-02-28 17:32:00,33.0,23.0,-100.00,NE,42,6.0,8.0,65,0.00,,,-99.99,,2013-03-01 00:32:00,
2013-02-28 17:42:00,33.0,24.0,-100.00,ENE,65,4.0,6.0,68,0.00,,,-99.99,,2013-03-01 00:42:00,
2013-02-28 17:52:00,33.0,24.0,-100.00,ENE,65,4.0,6.0,68,0.00,,,-99.99,,2013-03-01 00:52:00,
2013-02-28 18:01:00,33.0,24.0,-100.00,ENE,65,4.0,6.0,68,0.00,,,-99.99,,2013-03-01 01:01:00,
2013-02-28 18:11:00,32.0,24.0,-100.00,ENE,69,5.0,6.0,69,0.00,,,-99.99,,2013-03-01 01:11:00,
2013-02-28 18:21:00,32.0,23.0,-100.00,NE,52,5.0,6.0,68,0.00,,,-99.99,,2013-03-01 01:21:00,
2013-02-28 18:31:00,32.0,23.0,-100.00,NE,52,5.0,6.0,68,0.00,,,-99.99,,2013-03-01 01:31:00,
2013-02-28 18:42:00,32.0,23.0,-100.00,NE,52,5.0,6.0,69,0.00,,,-99.99,,2013-03-01 01:42:00,
2013-02-28 18:52:00,32.0,23.0,-100.00,NE,52,5.0,6.0,69,0.00,,,-99.99,,2013-03-01 01:52:00,
2013-02-28 19:01:00,32.0,23.0,-100.00,NE,52,5.0,6.0,69,0.00,,,-99.99,,2013-03-01 02:01:00,
2013-02-28 19:11:00,32.0,23.0,-100.00,NE,41,4.0,5.0,70,0.00,,,-99.99,,2013-03-01 02:11:00,
2013-02-28 19:21:00,32.0,23.0,-100.00,NNE,30,6.0,7.0,70,0.00,,,-99.99,,2013-03-01 02:21:00,
2013-02-28 19:31:00,32.0,23.0,-100.00,NNE,30,6.0,7.0,70,0.00,,,-99.99,,2013-03-01 02:31:00,
2013-02-28 19:42:00,32.0,24.0,-100.00,NNE,25,5.0,7.0,72,0.00,,,-99.99,,2013-03-01 02:42:00,
2013-02-28 19:52:00,32.0,24.0,-100.00,NNE,25,5.0,7.0,72,0.00,,,-99.99,,2013-03-01 02:52:00,
2013-02-28 20:01:00,32.0,24.0,-100.00,NNE,25,5.0,7.0,72,0.00,,,-99.99,,2013-03-01 03:01:00,
2013-02-28 20:11:00,31.0,24.0,-100.00,NNE,20,6.0,8.0,75,0.00,,,-99.99,,2013-03-01 03:11:00,
2013-02-28 20:21:00,31.0,24.0,-100.00,NNE,20,6.0,8.0,75,0.00,,,-99.99,,2013-03-01 03:21:00,
2013-02-28 20:32:00,31.0,24.0,-100.00,NNE,20,6.0,8.0,75,0.00,,,-99.99,,2013-03-01 03:32:00,
2013-02-28 20:41:00,30.0,24.0,-100.00,NE,42,5.0,6.0,78,0.00,,,-99.99,,2013-03-01 03:41:00,
2013-02-28 20:52:00,30.0,24.0,-100.00,NE,55,4.0,5.0,77,0.00,,,-99.99,,2013-03-01 03:52:00,
2013-02-28 21:01:00,30.0,24.0,-100.00,NE,55,4.0,5.0,77,0.00,,,-99.99,,2013-03-01 04:01:00,
2013-02-28 21:11:00,30.0,24.0,-100.00,NE,55,4.0,5.0,77,0.00,,,-99.99,,2013-03-01 04:11:00,
2013-02-28 21:21:00,30.0,24.0,-100.00,NE,35,3.0,4.0,78,0.00,,,-99.99,,2013-03-01 04:21:00,
2013-02-28 21:31:00,30.0,24.0,-100.00,NE,35,3.0,4.0,78,0.00,,,-99.99,,2013-03-01 04:31:00,
2013-02-28 21:41:00,30.0,24.0,-100.00,NNE,28,2.0,3.0,79,0.00,,,-99.99,,2013-03-01 04:41:00,
2013-02-28 21:52:00,30.0,24.0,-100.00,North,8,4.0,5.0,77,0.00,,,-99.99,,2013-03-01 04:52:00,
2013-02-28 22:01:00,30.0,24.0,-100.00,North,8,4.0,5.0,77,0.00,,,-99.99,,2013-03-01 05:01:00,
2013-02-28 22:11:00,30.0,24.0,-100.00,North,356,5.0,6.0,77,0.00,,,-99.99,,2013-03-01 05:11:00,
2013-02-28 22:22:00,30.0,24.0,-100.00,North,356,5.0,6.0,77,0.00,,,-99.99,,2013-03-01 05:22:00,
2013-02-28 22:32:00,30.0,24.0,-100.00,North,356,5.0,6.0,77,0.00,,,-99.99,,2013-03-01 05:32:00,
2013-02-28 22:41:00,30.0,24.0,-100.00,NNE,14,5.0,6.0,78,0.00,,,-99.99,,2013-03-01 05:41:00,
2013-02-28 22:52:00,29.0,23.0,-100.00,NNE,20,6.0,8.0,76,0.00,,,-99.99,,2013-03-01 05:52:00,
2013-02-28 23:02:00,29.0,23.0,-100.00,NNE,20,6.0,8.0,76,0.00,,,-99.99,,2013-03-01 06:02:00,
2013-02-28 23:11:00,29.0,23.0,-100.00,North,3,6.0,8.0,78,0.00,,,-99.99,,2013-03-01 06:11:00,
2013-02-28 23:21:00,29.0,23.0,-100.00,North,3,6.0,8.0,78,0.00,,,-99.99,,2013-03-01 06:21:00,
2013-02-28 23:31:00,29.0,23.0,-100.00,North,3,6.0,8.0,78,0.00,,,-99.99,,2013-03-01 06:31:00,
2013-02-28 23:42:00,29.0,23.0,-100.00,North,3,6.0,8.0,78,0.00,,,-99.99,,2013-03-01 06:42:00,
2013-02-28 23:52:00,29.0,24.0,-100.00,NNE,14,4.0,5.0,80,0.00,,,-99.99,,2013-03-01 06:52:00,